createdAt,value
2022-08-12T00:00:53.121Z,100.00
2022-08-12T00:03:38.850Z,100.00
2022-08-12T00:06:25.513Z,100.00
2022-08-12T00:09:11.311Z,100.00
2022-08-12T00:11:57.223Z,100.00
2022-08-12T00:14:42.755Z,99.77
2022-08-12T00:17:28.266Z,100.00
2022-08-12T00:20:13.848Z,100.00
2022-08-12T00:23:00.171Z,100.00
2022-08-12T00:26:20.978Z,100.00
2022-08-12T00:29:10.179Z,100.00
2022-08-12T00:31:55.774Z,100.00
2022-08-12T00:34:41.061Z,100.00
2022-08-12T00:37:27.706Z,100.00
2022-08-12T00:40:14.576Z,100.00
2022-08-12T00:42:42.583Z,100.00
2022-08-12T00:45:10.367Z,100.00
2022-08-12T00:47:38.450Z,100.00
2022-08-12T00:50:06.749Z,100.00
2022-08-12T00:52:35.178Z,100.00
2022-08-12T00:55:04.272Z,100.00
2022-08-12T00:57:37.448Z,100.00
2022-08-12T01:00:14.688Z,100.00
2022-08-12T01:02:46.429Z,100.00
2022-08-12T01:05:34.995Z,100.00
2022-08-12T01:08:20.850Z,100.00
2022-08-12T01:11:06.979Z,100.00
2022-08-12T01:13:36.348Z,100.00
2022-08-12T01:16:05.817Z,100.00
2022-08-12T01:18:36.226Z,100.00
2022-08-12T01:21:27.756Z,100.00
2022-08-12T01:24:28.023Z,100.00
2022-08-12T01:26:59.851Z,100.00
2022-08-12T01:29:32.867Z,100.00
2022-08-12T01:32:05.523Z,100.00
2022-08-12T01:34:39.502Z,100.00
2022-08-12T01:37:09.086Z,100.00
2022-08-12T01:40:31.677Z,100.00
2022-08-12T01:42:43.398Z,100.00
2022-08-12T01:45:12.444Z,100.00
2022-08-12T01:47:54.578Z,100.00
2022-08-12T01:51:06.548Z,100.00
2022-08-12T01:53:51.697Z,100.00
2022-08-12T01:56:24.582Z,100.00
2022-08-12T01:59:15.762Z,100.00
2022-08-12T02:01:45.717Z,100.00
2022-08-12T02:04:43.327Z,100.00
2022-08-12T02:07:56.312Z,100.00
2022-08-12T02:10:49.121Z,100.00
2022-08-12T02:13:53.918Z,100.00
2022-08-12T02:16:39.116Z,100.00
2022-08-12T02:19:22.330Z,100.00
2022-08-12T02:22:30.579Z,100.00
2022-08-12T02:25:29.444Z,100.00
2022-08-12T02:27:56.935Z,100.00
2022-08-12T02:30:26.822Z,100.00
2022-08-12T02:33:09.613Z,100.00
2022-08-12T02:35:39.645Z,100.00
2022-08-12T02:38:09.330Z,100.00
2022-08-12T02:40:38.608Z,100.00
2022-08-12T02:43:27.379Z,100.00
2022-08-12T02:46:14.145Z,100.00
2022-08-12T02:48:53.635Z,100.00
2022-08-12T02:51:24.391Z,100.00
2022-08-12T02:54:03.352Z,100.00
2022-08-12T02:56:50.684Z,100.00
2022-08-12T02:59:21.392Z,100.00
2022-08-12T03:01:50.400Z,100.00
2022-08-12T03:04:44.074Z,100.00
2022-08-12T03:07:49.298Z,100.00
2022-08-12T03:10:36.948Z,100.00
2022-08-12T03:13:07.252Z,100.00
2022-08-12T03:15:35.798Z,100.00
2022-08-12T03:18:26.260Z,100.00
2022-08-12T03:20:57.124Z,100.00
2022-08-12T03:23:28.932Z,100.00
2022-08-12T03:26:02.475Z,100.00
2022-08-12T03:28:50.517Z,99.74
2022-08-12T03:31:20.923Z,98.27
2022-08-12T03:34:02.408Z,96.59
2022-08-12T03:36:35.674Z,93.97
2022-08-12T03:39:18.378Z,91.56
2022-08-12T03:42:07.664Z,89.52
2022-08-12T03:45:14.389Z,87.95
2022-08-12T03:48:33.070Z,86.94
2022-08-12T03:51:20.357Z,85.81
2022-08-12T03:54:06.985Z,84.73
2022-08-12T03:56:54.044Z,84.78
2022-08-12T03:59:39.304Z,83.56
2022-08-12T04:02:08.011Z,82.64
2022-08-12T04:04:35.899Z,81.69
2022-08-12T04:07:07.849Z,81.95
2022-08-12T04:09:35.482Z,79.65
2022-08-12T04:12:22.685Z,78.39
2022-08-12T04:14:57.036Z,77.46
2022-08-12T04:17:28.054Z,75.96
2022-08-12T04:19:56.607Z,74.64
2022-08-12T04:22:26.167Z,72.43
2022-08-12T04:24:54.287Z,71.12
2022-08-12T04:27:21.156Z,69.59
2022-08-12T04:30:16.686Z,67.43
2022-08-12T04:32:37.638Z,66.58
2022-08-12T04:35:07.478Z,65.16
2022-08-12T04:37:58.535Z,64.88
2022-08-12T04:40:28.089Z,63.25
2022-08-12T04:42:56.005Z,63.43
2022-08-12T04:45:22.958Z,63.20
2022-08-12T04:47:50.046Z,61.73
2022-08-12T04:50:33.825Z,61.51
2022-08-12T04:53:05.801Z,60.54
2022-08-12T04:55:33.585Z,58.92
2022-08-12T04:58:00.449Z,60.49
2022-08-12T05:00:27.766Z,61.33
2022-08-12T05:02:54.995Z,63.47
2022-08-12T05:05:23.652Z,64.08
2022-08-12T05:07:53.988Z,65.98
2022-08-12T05:10:33.089Z,67.38
2022-08-12T05:13:05.446Z,67.76
2022-08-12T05:15:32.318Z,68.29
2022-08-12T05:17:59.706Z,68.11
2022-08-12T05:20:29.482Z,67.29
2022-08-12T05:23:13.898Z,67.61
2022-08-12T05:25:43.372Z,67.01
2022-08-12T05:28:10.871Z,66.12
2022-08-12T05:30:37.665Z,66.83
2022-08-12T05:33:05.832Z,67.01
2022-08-12T05:35:42.925Z,66.76
2022-08-12T05:38:30.483Z,66.38
2022-08-12T05:40:58.154Z,65.68
2022-08-12T05:43:24.994Z,65.13
2022-08-12T05:45:51.934Z,64.23
2022-08-12T05:48:19.200Z,64.80
2022-08-12T05:50:46.676Z,65.08
2022-08-12T05:53:13.582Z,64.72
2022-08-12T05:55:40.649Z,65.31
2022-08-12T05:58:08.200Z,64.71
2022-08-12T06:00:35.849Z,63.38
2022-08-12T06:03:04.803Z,60.60
2022-08-12T06:05:52.715Z,58.54
2022-08-12T06:08:22.837Z,56.43
2022-08-12T06:10:50.531Z,55.26
2022-08-12T06:13:28.222Z,54.16
2022-08-12T06:18:29.936Z,53.10
2022-08-12T06:21:01.758Z,53.40
2022-08-12T06:23:29.797Z,52.35
2022-08-12T06:25:57.199Z,52.96
2022-08-12T06:28:24.112Z,53.37
2022-08-12T06:31:22.338Z,53.14
2022-08-12T06:33:55.827Z,54.56
2022-08-12T06:36:29.922Z,54.15
2022-08-12T06:38:59.603Z,55.19
2022-08-12T06:42:30.842Z,54.53
2022-08-12T06:44:32.641Z,52.29
2022-08-12T06:46:59.903Z,50.89
2022-08-12T06:49:28.448Z,49.41
2022-08-12T06:51:56.681Z,46.67
2022-08-12T06:54:31.057Z,45.91
2022-08-12T06:57:04.653Z,45.15
2022-08-12T06:59:32.515Z,44.18
2022-08-12T07:01:59.454Z,45.85
2022-08-12T07:04:36.222Z,48.55
2022-08-12T07:07:13.650Z,49.94
2022-08-12T07:10:04.156Z,51.48
2022-08-12T07:12:29.906Z,50.57
2022-08-12T07:14:58.323Z,51.09
2022-08-12T07:17:26.501Z,52.33
2022-08-12T07:19:55.511Z,53.50
2022-08-12T07:22:24.847Z,54.89
2022-08-12T07:25:11.542Z,54.65
2022-08-12T07:27:42.822Z,55.59
2022-08-12T07:30:10.517Z,56.22
2022-08-12T07:32:37.378Z,56.62
2022-08-12T07:35:04.698Z,57.01
2022-08-12T07:37:31.614Z,57.94
2022-08-12T07:39:59.538Z,58.68
2022-08-12T07:42:27.831Z,58.62
2022-08-12T07:44:56.061Z,58.74
2022-08-12T07:47:23.770Z,58.62
2022-08-12T07:50:04.878Z,58.30
2022-08-12T07:52:38.597Z,58.68
2022-08-12T07:55:06.242Z,58.68
2022-08-12T07:57:35.915Z,58.69
2022-08-12T08:00:05.367Z,58.46
2022-08-12T08:02:37.195Z,56.65
2022-08-12T08:05:05.047Z,56.08
2022-08-12T08:07:31.932Z,54.06
2022-08-12T08:10:00.604Z,53.80
2022-08-12T08:12:47.562Z,53.03
2022-08-12T08:15:15.770Z,51.61
2022-08-12T08:17:57.833Z,47.90
2022-08-12T08:20:28.791Z,48.91
2022-08-12T08:22:59.988Z,47.67
2022-08-12T08:25:35.984Z,46.46
2022-08-12T08:28:12.936Z,45.03
2022-08-12T08:30:43.941Z,46.09
2022-08-12T08:33:23.580Z,46.14
2022-08-12T08:36:00.657Z,46.42
2022-08-12T08:38:33.332Z,45.46
2022-08-12T08:42:15.682Z,46.42
2022-08-12T08:44:11.307Z,46.68
2022-08-12T08:46:39.781Z,49.59
2022-08-12T08:49:07.055Z,50.13
2022-08-12T08:51:33.963Z,51.15
2022-08-12T08:54:00.939Z,51.55
2022-08-12T08:56:30.944Z,51.92
2022-08-12T08:58:58.014Z,52.49
2022-08-12T09:01:26.468Z,52.26
2022-08-12T09:05:07.832Z,51.92
2022-08-12T09:10:02.300Z,52.08
2022-08-12T09:12:55.095Z,52.73
2022-08-12T09:15:35.338Z,51.22
2022-08-12T09:18:08.459Z,50.97
2022-08-12T09:20:53.169Z,50.73
2022-08-12T09:24:00.216Z,50.66
2022-08-12T09:28:57.247Z,50.41
2022-08-12T09:32:03.780Z,49.78
2022-08-12T09:34:26.572Z,49.04
2022-08-12T09:37:02.582Z,47.54
2022-08-12T09:40:03.158Z,47.23
2022-08-12T09:43:11.086Z,46.81
2022-08-12T09:46:11.126Z,45.42
2022-08-12T09:48:24.565Z,44.64
2022-08-12T09:50:55.086Z,45.23
2022-08-12T09:53:29.241Z,44.99
2022-08-12T09:56:33.366Z,44.47
2022-08-12T09:58:59.696Z,44.22
2022-08-12T10:01:35.392Z,42.15
2022-08-12T10:04:19.787Z,37.69
2022-08-12T10:06:55.316Z,36.48
2022-08-12T10:09:56.944Z,36.73
2022-08-12T10:12:32.736Z,38.43
2022-08-12T10:15:00.180Z,38.94
2022-08-12T10:17:27.054Z,40.33
2022-08-12T10:19:53.842Z,39.21
2022-08-12T10:22:49.138Z,39.14
2022-08-12T10:26:34.221Z,39.45
2022-08-12T10:28:36.199Z,39.03
2022-08-12T10:31:05.797Z,38.55
2022-08-12T10:33:55.684Z,37.42
2022-08-12T10:36:39.786Z,36.50
2022-08-12T10:40:00.013Z,37.07
2022-08-12T10:42:15.309Z,38.66
2022-08-12T10:44:46.865Z,40.09
2022-08-12T10:48:01.587Z,40.50
2022-08-12T10:50:32.598Z,41.99
2022-08-12T10:52:54.322Z,43.69
2022-08-12T10:55:21.177Z,45.12
2022-08-12T10:58:14.859Z,47.62
2022-08-12T11:00:55.527Z,49.53
2022-08-12T11:04:18.743Z,51.12
2022-08-12T11:07:07.468Z,52.43
2022-08-12T11:09:02.121Z,56.03
2022-08-12T11:12:34.966Z,57.96
2022-08-12T11:14:49.516Z,60.31
2022-08-12T11:17:34.022Z,62.66
2022-08-12T11:20:05.351Z,64.25
2022-08-12T11:22:32.493Z,66.22
2022-08-12T11:24:59.431Z,67.59
2022-08-12T11:27:26.320Z,68.59
2022-08-12T11:30:02.529Z,70.16
2022-08-12T11:32:38.807Z,71.04
2022-08-12T11:35:06.927Z,72.09
2022-08-12T11:37:58.250Z,72.42
2022-08-12T11:40:22.962Z,72.39
2022-08-12T11:42:50.221Z,72.34
2022-08-12T11:45:19.674Z,72.47
2022-08-12T11:47:46.906Z,72.41
2022-08-12T11:50:19.108Z,71.84
2022-08-12T11:52:56.422Z,70.98
2022-08-12T11:55:25.322Z,70.06
2022-08-12T11:58:33.861Z,71.09
2022-08-12T12:03:43.885Z,70.44
2022-08-12T12:06:17.893Z,69.81
2022-08-12T12:08:52.781Z,69.46
2022-08-12T12:11:21.648Z,68.72
2022-08-12T12:14:08.843Z,67.48
2022-08-12T12:16:39.532Z,67.01
2022-08-12T12:19:06.948Z,66.31
2022-08-12T12:21:48.515Z,64.92
2022-08-12T12:24:21.825Z,64.14
2022-08-12T12:27:00.745Z,64.30
2022-08-12T12:30:19.724Z,64.65
2022-08-12T12:32:29.062Z,64.35
2022-08-12T12:35:14.516Z,64.87
2022-08-12T12:38:04.190Z,65.41
2022-08-12T12:40:39.801Z,66.18
2022-08-12T12:43:07.633Z,66.27
2022-08-12T12:45:36.421Z,66.28
2022-08-12T12:48:06.151Z,65.25
2022-08-12T12:50:45.274Z,65.91
2022-08-12T12:54:07.771Z,65.23
2022-08-12T12:57:16.848Z,64.80
2022-08-12T13:00:08.385Z,64.50
2022-08-12T13:02:40.376Z,63.26
2022-08-12T13:05:13.699Z,63.05
2022-08-12T13:07:54.089Z,62.38
2022-08-12T13:10:24.075Z,60.64
2022-08-12T13:12:58.022Z,60.73
2022-08-12T13:15:24.867Z,61.06
2022-08-12T13:18:11.891Z,60.92
2022-08-12T13:20:43.021Z,60.84
2022-08-12T13:23:36.447Z,60.42
2022-08-12T13:25:59.169Z,60.50
2022-08-12T13:28:31.084Z,60.64
2022-08-12T13:30:59.507Z,60.62
2022-08-12T13:34:33.620Z,60.22
2022-08-12T13:36:20.420Z,60.19
2022-08-12T13:38:54.382Z,60.20
2022-08-12T13:41:33.733Z,58.80
2022-08-12T13:44:02.167Z,58.81
2022-08-12T13:46:28.982Z,58.24
2022-08-12T13:48:56.663Z,57.97
2022-08-12T13:51:24.801Z,58.14
2022-08-12T13:54:11.607Z,57.31
2022-08-12T13:56:40.851Z,56.58
2022-08-12T13:59:08.646Z,56.25
2022-08-12T14:01:41.045Z,56.72
2022-08-12T14:04:12.389Z,57.02
2022-08-12T14:06:40.841Z,56.86
2022-08-12T14:09:17.307Z,57.16
2022-08-12T14:11:54.809Z,57.99
2022-08-12T14:14:31.525Z,58.51
2022-08-12T14:17:10.326Z,58.63
2022-08-12T14:19:48.249Z,58.27
2022-08-12T14:22:21.126Z,58.60
2022-08-12T14:24:53.271Z,57.92
2022-08-12T14:28:04.489Z,57.81
2022-08-12T14:30:15.725Z,57.36
2022-08-12T14:32:45.309Z,56.54
2022-08-12T14:35:12.643Z,55.96
2022-08-12T14:37:56.781Z,55.18
2022-08-12T14:40:28.696Z,54.63
2022-08-12T14:42:58.744Z,53.83
2022-08-12T14:45:45.482Z,53.44
2022-08-12T14:48:15.951Z,52.84
2022-08-12T14:51:03.307Z,53.39
2022-08-12T14:59:27.202Z,60.99
2022-08-12T15:02:21.336Z,65.09
2022-08-12T15:04:56.217Z,67.71
2022-08-12T15:07:34.205Z,69.23
2022-08-12T15:10:14.696Z,70.63
2022-08-12T15:12:52.738Z,71.71
2022-08-12T15:15:21.727Z,73.12
2022-08-12T15:17:59.054Z,73.25
2022-08-12T15:20:37.927Z,72.70
2022-08-12T15:23:18.067Z,72.43
2022-08-12T15:26:02.633Z,71.94
2022-08-12T15:28:37.166Z,71.55
2022-08-12T15:31:09.581Z,70.31
2022-08-12T15:33:58.031Z,69.78
2022-08-12T15:36:55.032Z,69.10
2022-08-12T15:39:16.554Z,68.34
2022-08-12T15:41:49.182Z,67.97
2022-08-12T15:44:42.097Z,67.42
2022-08-12T15:47:06.151Z,66.94
2022-08-12T15:49:43.076Z,66.69
2022-08-12T15:52:29.410Z,66.24
2022-08-12T15:55:06.002Z,65.85
2022-08-12T15:57:41.671Z,66.33
2022-08-12T16:00:29.014Z,66.88
2022-08-12T16:02:58.568Z,67.25
2022-08-12T16:06:11.458Z,67.93
2022-08-12T16:08:24.367Z,69.01
2022-08-12T16:10:56.807Z,69.55
2022-08-12T16:13:34.751Z,69.95
2022-08-12T16:16:12.454Z,69.67
2022-08-12T16:18:52.112Z,70.91
2022-08-12T16:21:52.718Z,71.48
2022-08-12T16:24:08.664Z,71.86
2022-08-12T16:26:40.745Z,72.09
2022-08-12T16:29:15.321Z,73.06
2022-08-12T16:31:44.787Z,74.32
2022-08-12T16:34:25.882Z,74.55
2022-08-12T16:37:07.538Z,75.12
2022-08-12T16:40:00.318Z,76.46
2022-08-12T16:42:28.468Z,76.96
2022-08-12T16:44:59.927Z,77.84
2022-08-12T16:47:31.454Z,78.54
2022-08-12T16:50:31.310Z,79.58
2022-08-12T16:53:02.299Z,80.21
2022-08-12T16:55:42.495Z,80.84
2022-08-12T16:58:27.867Z,81.30
2022-08-12T17:00:55.948Z,82.26
2022-08-12T17:03:28.930Z,82.29
2022-08-12T17:05:57.616Z,82.61
2022-08-12T17:08:30.235Z,82.94
2022-08-12T17:10:57.415Z,83.02
2022-08-12T17:13:26.371Z,83.54
2022-08-12T17:16:05.716Z,83.84
2022-08-12T17:18:43.002Z,83.98
2022-08-12T17:21:41.633Z,84.21
2022-08-12T17:24:15.337Z,84.45
2022-08-12T17:26:49.404Z,84.37
2022-08-12T17:29:24.341Z,84.26
2022-08-12T17:32:12.315Z,85.23
2022-08-12T17:34:58.663Z,84.91
2022-08-12T17:37:28.019Z,85.20
2022-08-12T17:40:15.016Z,85.06
2022-08-12T17:42:47.872Z,85.58
2022-08-12T17:45:21.475Z,85.32
2022-08-12T17:48:01.042Z,84.83
2022-08-12T17:50:34.265Z,83.50
2022-08-12T17:53:03.224Z,83.25
2022-08-12T17:55:44.763Z,83.97
2022-08-12T17:58:16.641Z,83.26
2022-08-12T18:00:50.681Z,83.82
2022-08-12T18:04:04.912Z,84.65
2022-08-12T18:06:13.969Z,85.23
2022-08-12T18:08:54.280Z,85.44
2022-08-12T18:12:06.519Z,85.82
2022-08-12T18:14:32.081Z,85.71
2022-08-12T18:17:01.216Z,85.36
2022-08-12T18:19:48.550Z,85.29
2022-08-12T18:22:30.775Z,85.82
2022-08-12T18:25:04.730Z,85.46
2022-08-12T18:27:44.224Z,85.42
2022-08-12T18:30:20.856Z,84.44
2022-08-12T18:33:05.220Z,84.80
2022-08-12T18:35:47.654Z,85.61
2022-08-12T18:38:22.678Z,85.69
2022-08-12T18:41:21.403Z,85.42
2022-08-12T18:44:07.848Z,85.60
2022-08-12T18:46:53.798Z,85.41
2022-08-12T18:49:33.343Z,85.34
2022-08-12T18:52:05.686Z,84.68
2022-08-12T18:54:52.950Z,85.06
2022-08-12T18:58:06.332Z,85.44
2022-08-12T19:00:25.262Z,85.23
2022-08-12T19:02:53.800Z,85.07
2022-08-12T19:05:23.560Z,84.72
2022-08-12T19:08:11.659Z,84.49
2022-08-12T19:10:49.948Z,84.87
2022-08-12T19:13:37.721Z,84.37
2022-08-12T19:16:11.355Z,84.42
2022-08-12T19:18:44.626Z,84.83
2022-08-12T19:21:17.047Z,85.07
2022-08-12T19:24:08.182Z,85.51
2022-08-12T19:26:36.725Z,86.38
2022-08-12T19:29:07.619Z,86.38
2022-08-12T19:31:55.603Z,85.94
2022-08-12T19:35:53.776Z,86.13
2022-08-12T19:38:02.584Z,85.80
2022-08-12T19:40:31.525Z,85.06
2022-08-12T19:43:20.023Z,85.46
2022-08-12T19:45:56.476Z,85.90
2022-08-12T19:48:30.407Z,85.94
2022-08-12T19:50:58.125Z,85.35
2022-08-12T19:53:27.431Z,85.67
2022-08-12T19:55:57.279Z,85.51
2022-08-12T19:58:28.294Z,85.63
2022-08-12T20:00:56.494Z,85.97
2022-08-12T20:03:40.375Z,86.89
2022-08-12T20:06:21.787Z,87.60
2022-08-12T20:08:55.879Z,88.42
2022-08-12T20:12:12.791Z,88.68
2022-08-12T20:14:17.991Z,88.67
2022-08-12T20:16:52.830Z,88.49
2022-08-12T20:19:52.754Z,88.43
2022-08-12T20:22:24.495Z,88.14
2022-08-12T20:25:08.697Z,87.76
2022-08-12T20:28:02.894Z,87.57
2022-08-12T20:30:37.596Z,86.84
2022-08-12T20:33:18.368Z,86.57
2022-08-12T20:36:14.071Z,85.61
2022-08-12T20:38:38.337Z,85.02
2022-08-12T20:41:17.425Z,84.77
2022-08-12T20:43:52.208Z,84.49
2022-08-12T20:46:21.307Z,84.23
2022-08-12T20:48:55.334Z,84.04
2022-08-12T20:51:55.382Z,83.57
2022-08-12T20:54:16.572Z,83.53
2022-08-12T20:56:45.357Z,83.68
2022-08-12T20:59:20.144Z,84.23
2022-08-12T21:01:49.033Z,84.50
2022-08-12T21:04:36.971Z,84.40
2022-08-12T21:07:09.697Z,85.01
2022-08-12T21:09:40.814Z,84.85
2022-08-12T21:12:28.135Z,84.79
2022-08-12T21:15:23.327Z,84.82
2022-08-12T21:18:15.542Z,85.53
2022-08-12T21:20:52.501Z,85.72
2022-08-12T21:23:23.897Z,85.96
2022-08-12T21:25:56.129Z,86.41
2022-08-12T21:28:27.821Z,87.07
2022-08-12T21:32:34.847Z,86.85
2022-08-12T21:34:07.569Z,86.50
2022-08-12T21:36:49.450Z,86.22
2022-08-12T21:39:27.900Z,86.49
2022-08-12T21:42:06.621Z,86.06
2022-08-12T21:45:46.240Z,85.65
2022-08-12T21:47:23.558Z,86.09
2022-08-12T21:50:03.356Z,86.61
2022-08-12T21:52:34.980Z,88.15
2022-08-12T21:55:08.372Z,89.50
2022-08-12T21:58:02.630Z,91.64
2022-08-12T22:00:34.223Z,88.47
2022-08-12T22:04:01.531Z,90.50
2022-08-12T22:06:31.481Z,92.63
2022-08-12T22:09:16.670Z,94.71
2022-08-12T22:11:56.678Z,95.94
2022-08-12T22:14:30.327Z,96.99
2022-08-12T22:16:58.694Z,97.42
2022-08-12T22:19:27.692Z,96.71
2022-08-12T22:21:58.310Z,96.75
2022-08-12T22:24:29.893Z,97.21
2022-08-12T22:26:59.644Z,97.51
2022-08-12T22:30:04.019Z,98.21
2022-08-12T22:32:31.033Z,98.17
2022-08-12T22:35:22.413Z,97.68
2022-08-12T22:37:53.643Z,96.85
2022-08-12T22:40:22.856Z,96.63
2022-08-12T22:43:19.993Z,96.40
2022-08-12T22:46:10.142Z,96.21
2022-08-12T22:48:37.159Z,96.23
2022-08-12T22:51:19.450Z,96.09
2022-08-12T22:53:49.347Z,96.62
2022-08-12T22:56:19.044Z,96.38
2022-08-12T22:58:47.308Z,96.69
2022-08-12T23:01:50.171Z,96.90
2022-08-12T23:04:02.948Z,96.98
2022-08-12T23:06:30.021Z,97.17
2022-08-12T23:08:57.019Z,97.13
2022-08-12T23:11:25.391Z,97.10
2022-08-12T23:14:03.477Z,97.41
2022-08-12T23:16:34.182Z,97.41
2022-08-12T23:19:11.035Z,97.56
2022-08-12T23:22:06.603Z,97.88
2022-08-12T23:24:54.103Z,98.35
2022-08-12T23:27:51.851Z,98.42
2022-08-12T23:30:32.444Z,98.81
2022-08-12T23:33:19.766Z,100.00
2022-08-12T23:36:02.600Z,100.00
2022-08-12T23:38:32.228Z,100.00
2022-08-12T23:41:02.038Z,100.00
2022-08-12T23:43:39.076Z,100.00
2022-08-12T23:46:18.693Z,100.00
2022-08-12T23:48:47.925Z,100.00
2022-08-12T23:51:22.793Z,100.00
2022-08-12T23:54:00.064Z,100.00
2022-08-12T23:56:33.526Z,100.00
2022-08-12T23:59:05.976Z,100.00
